createdAt,value
2018-12-10T00:00:01.355Z,0.0
2018-12-10T00:05:01.390Z,0.0
2018-12-10T00:10:02.328Z,0.0
2018-12-10T00:15:01.398Z,0.0
2018-12-10T00:20:01.397Z,0.0
2018-12-10T00:25:01.398Z,0.2
2018-12-10T00:30:01.394Z,0.2
2018-12-10T00:35:01.395Z,0.2
2018-12-10T00:40:01.381Z,0.2
2018-12-10T00:45:01.385Z,0.2
2018-12-10T00:55:01.387Z,0.0
2018-12-10T01:00:01.396Z,0.2
2018-12-10T01:05:01.386Z,0.2
2018-12-10T01:10:01.387Z,0.2
2018-12-10T01:15:01.390Z,0.2
2018-12-10T01:20:01.357Z,0.2
2018-12-10T01:25:01.934Z,0.0
2018-12-10T01:30:01.397Z,0.0
2018-12-10T01:35:06.365Z,0.0
2018-12-10T01:41:01.379Z,0.2
2018-12-10T01:46:01.387Z,0.2
2018-12-10T01:51:01.378Z,0.4
2018-12-10T01:56:01.384Z,0.4
2018-12-10T02:01:01.407Z,0.4
2018-12-10T02:11:06.397Z,0.4
2018-12-10T02:16:01.390Z,0.2
2018-12-10T02:21:01.389Z,0.4
2018-12-10T02:26:01.387Z,0.4
2018-12-10T02:31:01.389Z,0.2
2018-12-10T02:36:01.366Z,0.2
2018-12-10T02:41:01.394Z,0.2
2018-12-10T02:46:02.083Z,0.0
2018-12-10T02:51:01.390Z,0.0
2018-12-10T02:56:06.368Z,0.0
2018-12-10T03:01:11.406Z,0.2
2018-12-10T03:06:06.414Z,0.4
2018-12-10T03:11:01.413Z,0.4
2018-12-10T03:16:06.395Z,0.4
2018-12-10T03:21:06.444Z,0.4
2018-12-10T03:26:06.401Z,0.2
2018-12-10T03:31:06.742Z,0.0
2018-12-10T03:36:01.363Z,0.0
2018-12-10T03:41:01.391Z,0.0
2018-12-10T03:46:01.367Z,0.0
2018-12-10T03:51:06.399Z,0.0
2018-12-10T04:01:01.391Z,0.0
2018-12-10T04:06:01.384Z,0.0
2018-12-10T04:11:01.387Z,0.2
2018-12-10T04:16:01.356Z,0.2
2018-12-10T04:26:01.406Z,0.2
2018-12-10T04:31:01.398Z,0.2
2018-12-10T04:36:01.348Z,0.0
2018-12-10T04:41:01.382Z,0.0
2018-12-10T04:46:01.383Z,0.0
2018-12-10T04:51:01.396Z,0.2
2018-12-10T05:01:01.386Z,0.2
2018-12-10T05:06:01.392Z,0.2
2018-12-10T05:11:01.396Z,0.2
2018-12-10T05:16:01.383Z,0.0
2018-12-10T05:21:01.394Z,0.0
2018-12-10T05:26:06.404Z,0.0
2018-12-10T05:31:01.424Z,0.2
2018-12-10T05:36:06.394Z,0.2
2018-12-10T05:41:06.406Z,0.2
2018-12-10T05:46:01.522Z,0.2
2018-12-10T05:51:01.347Z,0.2
2018-12-10T05:56:01.386Z,0.0
2018-12-10T06:01:01.355Z,0.0
2018-12-10T06:06:01.355Z,0.0
2018-12-10T06:11:01.388Z,0.0
2018-12-10T06:16:01.385Z,0.0
2018-12-10T06:21:06.403Z,0.0
2018-12-10T06:26:06.393Z,0.0
2018-12-10T06:31:06.396Z,0.0
2018-12-10T06:36:01.431Z,0.0
2018-12-10T06:41:01.498Z,0.0
2018-12-10T06:46:06.398Z,0.0
2018-12-10T06:51:01.517Z,0.0
2018-12-10T06:56:02.444Z,0.0
2018-12-10T07:01:01.399Z,0.0
2018-12-10T07:06:01.368Z,0.0
2018-12-10T07:11:01.390Z,0.0
2018-12-10T07:21:01.496Z,0.0
2018-12-10T07:31:01.380Z,0.0
2018-12-10T07:36:01.382Z,0.0
2018-12-10T07:41:01.395Z,0.0
2018-12-10T07:46:01.351Z,0.0
2018-12-10T07:51:01.372Z,0.0
2018-12-10T08:01:01.387Z,0.0
2018-12-10T08:06:01.386Z,0.0
2018-12-10T08:11:01.531Z,0.2
2018-12-10T08:16:07.495Z,0.2
2018-12-10T08:21:03.000Z,0.2
2018-12-10T08:31:03.729Z,0.2
2018-12-10T08:36:01.391Z,0.0
2018-12-10T08:41:01.529Z,0.0
2018-12-10T08:46:01.365Z,0.0
2018-12-10T08:51:01.563Z,0.0
2018-12-10T08:56:01.344Z,0.0
2018-12-10T09:01:01.375Z,0.0
2018-12-10T09:11:01.390Z,0.0
2018-12-10T09:16:01.377Z,0.0
2018-12-10T09:21:01.390Z,0.0
2018-12-10T09:26:06.388Z,0.0
2018-12-10T09:31:06.392Z,0.0
2018-12-10T09:36:06.335Z,0.0
2018-12-10T09:41:06.397Z,0.0
2018-12-10T09:46:06.403Z,0.0
2018-12-10T09:51:01.390Z,0.0
2018-12-10T09:56:01.394Z,0.0
2018-12-10T10:01:01.391Z,0.1
2018-12-10T10:06:01.368Z,0.1
2018-12-10T10:11:01.396Z,0.1
2018-12-10T10:16:01.398Z,0.1
2018-12-10T10:21:01.382Z,0.1
2018-12-10T10:26:01.381Z,0.0
2018-12-10T10:31:01.386Z,0.0
2018-12-10T10:36:01.387Z,0.0
2018-12-10T10:46:01.475Z,0.0
2018-12-10T10:51:01.398Z,0.0
2018-12-10T10:56:01.389Z,0.0
2018-12-10T11:01:01.455Z,0.0
2018-12-10T11:16:01.390Z,0.0
2018-12-10T11:21:01.391Z,0.0
2018-12-10T11:26:01.341Z,0.0
2018-12-10T11:31:06.402Z,0.0
2018-12-10T11:36:06.427Z,0.0
2018-12-10T11:41:01.385Z,0.0
2018-12-10T11:51:01.402Z,0.0
2018-12-10T11:56:01.354Z,0.0
2018-12-10T12:01:01.391Z,0.0
2018-12-10T12:06:01.394Z,0.0
2018-12-10T12:11:01.390Z,0.0
2018-12-10T12:21:01.387Z,0.0
2018-12-10T12:26:01.406Z,0.0
2018-12-10T12:31:06.385Z,0.0
2018-12-10T12:36:01.416Z,0.0
2018-12-10T12:51:06.393Z,0.0
2018-12-10T12:56:06.397Z,0.0
2018-12-10T13:01:06.395Z,0.0
2018-12-10T13:11:01.388Z,0.0
2018-12-10T13:16:01.353Z,0.0
2018-12-10T13:21:01.398Z,0.0
2018-12-10T13:26:01.392Z,0.0
2018-12-10T13:31:01.377Z,0.2
2018-12-10T13:41:01.377Z,0.2
2018-12-10T13:51:01.381Z,0.4
2018-12-10T13:56:01.351Z,0.2
2018-12-10T14:01:01.405Z,0.4
2018-12-10T14:11:01.390Z,0.2
2018-12-10T14:16:01.359Z,0.2
2018-12-10T14:21:01.391Z,0.2
2018-12-10T14:26:01.396Z,0.1
2018-12-10T14:31:01.398Z,0.1
2018-12-10T14:36:01.389Z,0.1
2018-12-10T14:41:01.389Z,0.1
2018-12-10T14:46:01.395Z,0.2
2018-12-10T14:56:01.383Z,0.6
2018-12-10T15:06:01.378Z,1.0
2018-12-10T15:11:01.378Z,0.9
2018-12-10T15:16:01.354Z,0.7
2018-12-10T15:21:01.392Z,0.4
2018-12-10T15:26:01.384Z,0.4
2018-12-10T15:31:01.386Z,0.0
2018-12-10T15:36:01.387Z,0.2
2018-12-10T15:41:01.389Z,0.2
2018-12-10T15:46:01.381Z,0.4
2018-12-10T15:51:01.379Z,0.6
2018-12-10T15:56:01.348Z,0.8
2018-12-10T16:01:01.390Z,0.8
2018-12-10T16:06:01.383Z,1.0
2018-12-10T16:16:01.409Z,1.0
2018-12-10T16:21:07.432Z,1.0
2018-12-10T16:26:01.399Z,0.8
2018-12-10T16:31:01.397Z,0.8
2018-12-10T16:36:01.458Z,0.8
2018-12-10T16:41:01.414Z,0.8
2018-12-10T16:46:01.414Z,0.8
2018-12-10T16:51:01.399Z,1.0
2018-12-10T16:56:01.419Z,1.0
2018-12-10T17:01:01.391Z,0.9
2018-12-10T17:06:01.394Z,1.0
2018-12-10T17:11:01.385Z,1.0
2018-12-10T17:16:01.390Z,1.0
2018-12-10T17:21:01.488Z,0.8
2018-12-10T17:31:01.359Z,0.6
2018-12-10T17:36:01.365Z,0.6
2018-12-10T17:41:06.915Z,0.6
2018-12-10T17:51:06.418Z,1.2
2018-12-10T17:56:01.411Z,1.1
2018-12-10T18:01:01.419Z,1.1
2018-12-10T18:11:01.429Z,1.1
2018-12-10T18:16:01.386Z,0.7
2018-12-10T18:21:01.391Z,1.1
2018-12-10T18:26:01.421Z,1.1
2018-12-10T18:31:01.408Z,1.3
2018-12-10T18:36:06.400Z,1.3
2018-12-10T18:41:01.408Z,1.3
2018-12-10T18:46:01.428Z,1.0
2018-12-10T18:51:01.391Z,1.0
2018-12-10T18:56:06.397Z,0.6
2018-12-10T19:01:01.420Z,0.6
2018-12-10T19:06:01.418Z,0.6
2018-12-10T19:11:02.507Z,0.4
2018-12-10T19:21:01.379Z,0.2
2018-12-10T19:26:01.394Z,0.2
2018-12-10T19:31:01.382Z,0.4
2018-12-10T19:36:01.463Z,0.6
2018-12-10T19:41:01.386Z,0.7
2018-12-10T19:46:06.395Z,1.3
2018-12-10T19:51:01.410Z,1.2
2018-12-10T19:56:01.423Z,1.2
2018-12-10T20:01:06.458Z,1.0
2018-12-10T20:06:01.407Z,0.9
2018-12-10T20:11:01.429Z,0.4
2018-12-10T20:17:06.393Z,0.4
2018-12-10T20:27:01.539Z,0.5
2018-12-10T20:32:06.479Z,0.7
2018-12-10T20:37:01.388Z,0.8
2018-12-10T20:42:01.388Z,0.8
2018-12-10T20:47:06.393Z,0.8
2018-12-10T20:52:01.390Z,0.8
2018-12-10T20:57:02.516Z,0.7
2018-12-10T21:12:01.396Z,0.6
2018-12-10T21:17:01.415Z,0.6
2018-12-10T21:22:06.444Z,0.6
2018-12-10T21:27:06.363Z,0.4
2018-12-10T21:32:06.394Z,0.6
2018-12-10T21:37:01.423Z,0.6
2018-12-10T21:42:01.412Z,0.8
2018-12-10T21:47:01.371Z,1.0
2018-12-10T21:52:01.426Z,1.2
2018-12-10T21:57:06.346Z,1.3
2018-12-10T22:02:01.418Z,1.3
2018-12-10T22:07:01.366Z,1.0
2018-12-10T22:12:01.396Z,0.8
2018-12-10T22:17:01.399Z,0.6
2018-12-10T22:22:01.392Z,0.5
2018-12-10T22:27:06.380Z,0.5
2018-12-10T22:32:07.415Z,0.5
2018-12-10T22:37:06.467Z,0.7
2018-12-10T22:42:06.532Z,0.7
2018-12-10T22:47:01.422Z,0.6
2018-12-10T22:52:01.394Z,0.6
2018-12-10T22:57:01.424Z,0.5
2018-12-10T23:02:01.425Z,0.3
2018-12-10T23:07:01.406Z,0.3
2018-12-10T23:12:06.400Z,0.5
2018-12-10T23:17:06.368Z,0.3
2018-12-10T23:22:01.448Z,0.2
2018-12-10T23:27:06.400Z,0.4
2018-12-10T23:37:07.424Z,0.5
2018-12-10T23:42:01.429Z,0.7
2018-12-10T23:47:01.395Z,0.7
2018-12-10T23:52:01.402Z,0.7
2018-12-10T23:57:01.355Z,0.8
